createdAt,value
2023-04-18T00:00:50.325Z,58.27
2023-04-18T00:05:53.381Z,60.23
2023-04-18T00:10:56.486Z,67.34
2023-04-18T00:15:59.666Z,64.19
2023-04-18T00:21:03.694Z,59.30
2023-04-18T00:26:06.665Z,54.66
2023-04-18T00:31:11.021Z,56.11
2023-04-18T00:36:13.998Z,57.71
2023-04-18T00:41:18.785Z,59.48
2023-04-18T00:46:21.952Z,66.51
2023-04-18T00:51:26.092Z,63.50
2023-04-18T00:56:30.136Z,56.49
2023-04-18T01:01:34.212Z,56.09
2023-04-18T01:06:37.405Z,57.80
2023-04-18T01:11:40.392Z,59.55
2023-04-18T01:16:47.370Z,66.70
2023-04-18T01:22:13.520Z,62.95
2023-04-18T01:27:17.067Z,55.82
2023-04-18T01:32:20.781Z,56.37
2023-04-18T01:37:24.257Z,57.84
2023-04-18T01:42:27.245Z,59.76
2023-04-18T01:47:30.273Z,66.69
2023-04-18T01:52:33.532Z,63.96
2023-04-18T01:57:37.030Z,56.71
2023-04-18T02:02:40.377Z,56.08
2023-04-18T02:07:43.671Z,58.25
2023-04-18T02:12:47.019Z,59.68
2023-04-18T02:17:50.693Z,66.80
2023-04-18T02:22:53.652Z,63.86
2023-04-18T02:27:58.328Z,56.75
2023-04-18T02:33:01.758Z,56.63
2023-04-18T02:38:05.032Z,58.39
2023-04-18T02:43:08.417Z,60.30
2023-04-18T02:48:11.486Z,67.60
2023-04-18T02:53:14.654Z,63.71
2023-04-18T02:58:27.973Z,56.58
2023-04-18T03:03:31.043Z,56.93
2023-04-18T03:08:52.380Z,58.28
2023-04-18T03:13:55.994Z,60.14
2023-04-18T03:18:59.797Z,66.92
2023-04-18T03:24:05.499Z,64.01
2023-04-18T03:29:10.256Z,56.77
2023-04-18T03:34:13.766Z,56.38
2023-04-18T03:39:17.321Z,58.21
2023-04-18T03:44:20.830Z,59.61
2023-04-18T03:49:24.000Z,66.92
2023-04-18T03:54:27.315Z,62.50
2023-04-18T03:59:31.638Z,55.54
2023-04-18T04:04:38.971Z,55.73
2023-04-18T04:09:42.086Z,57.53
2023-04-18T04:14:45.274Z,58.95
2023-04-18T04:19:50.397Z,60.79
2023-04-18T04:24:57.844Z,67.90
2023-04-18T04:30:05.262Z,63.02
2023-04-18T04:35:08.960Z,55.79
2023-04-18T04:40:14.659Z,55.84
2023-04-18T04:45:24.258Z,57.31
2023-04-18T04:50:28.496Z,59.20
2023-04-18T04:55:32.882Z,60.38
2023-04-18T05:00:36.294Z,67.22
2023-04-18T05:05:39.666Z,63.94
2023-04-18T05:10:43.479Z,56.19
2023-04-18T05:15:46.888Z,55.95
2023-04-18T05:20:50.085Z,57.57
2023-04-18T05:25:53.164Z,59.39
2023-04-18T05:31:01.635Z,60.57
2023-04-18T05:36:09.358Z,67.44
2023-04-18T05:41:12.630Z,62.53
2023-04-18T05:46:15.905Z,55.33
2023-04-18T05:51:18.954Z,55.26
2023-04-18T05:56:21.983Z,57.00
2023-04-18T06:01:24.989Z,59.09
2023-04-18T06:06:28.310Z,60.57
2023-04-18T06:11:35.667Z,67.38
2023-04-18T06:16:38.771Z,62.75
2023-04-18T06:21:42.923Z,54.24
2023-04-18T06:26:45.951Z,54.73
2023-04-18T06:31:50.860Z,56.46
2023-04-18T06:36:54.426Z,58.18
2023-04-18T06:41:58.946Z,59.54
2023-04-18T06:47:06.015Z,65.49
2023-04-18T06:52:09.184Z,60.41
2023-04-18T06:57:12.259Z,53.44
2023-04-18T07:02:15.888Z,54.63
2023-04-18T07:07:20.084Z,56.33
2023-04-18T07:12:23.235Z,57.39
2023-04-18T07:17:26.263Z,58.81
2023-04-18T07:22:29.787Z,59.56
2023-04-18T07:27:35.992Z,60.60
2023-04-18T07:32:39.201Z,66.73
2023-04-18T07:37:42.334Z,61.21
2023-04-18T07:42:45.625Z,53.50
2023-04-18T07:47:48.796Z,53.20
2023-04-18T07:52:51.855Z,54.77
2023-04-18T07:57:54.808Z,55.81
2023-04-18T08:02:57.838Z,56.86
2023-04-18T08:08:00.886Z,57.49
2023-04-18T08:13:09.866Z,58.35
2023-04-18T08:18:12.871Z,59.16
2023-04-18T08:23:16.054Z,59.26
2023-04-18T08:28:19.024Z,59.68
2023-04-18T08:33:24.025Z,60.06
2023-04-18T08:38:27.418Z,60.06
2023-04-18T08:43:31.372Z,60.26
2023-04-18T08:48:34.940Z,60.15
2023-04-18T08:53:39.430Z,60.44
2023-04-18T08:58:45.242Z,59.79
2023-04-18T09:03:48.482Z,59.44
2023-04-18T09:09:04.182Z,59.01
2023-04-18T09:14:07.926Z,58.55
2023-04-18T09:19:18.808Z,56.88
2023-04-18T09:25:44.987Z,57.88
2023-04-18T09:30:51.709Z,58.89
2023-04-18T09:35:55.830Z,58.61
2023-04-18T09:41:16.590Z,57.30
2023-04-18T09:46:22.722Z,57.33
2023-04-18T09:51:27.067Z,56.93
2023-04-18T09:56:32.145Z,56.78
2023-04-18T10:01:36.177Z,55.34
2023-04-18T10:06:42.239Z,53.80
2023-04-18T10:11:45.839Z,54.06
2023-04-18T10:16:50.611Z,53.95
2023-04-18T10:21:58.533Z,52.87
2023-04-18T10:27:02.594Z,51.72
2023-04-18T10:32:07.206Z,52.25
2023-04-18T10:37:12.936Z,51.52
2023-04-18T10:42:16.529Z,50.12
2023-04-18T10:47:21.172Z,49.61
2023-04-18T10:52:24.537Z,48.11
2023-04-18T10:57:41.421Z,47.00
2023-04-18T11:02:57.938Z,47.44
2023-04-18T11:08:01.161Z,46.40
2023-04-18T11:13:06.669Z,46.48
2023-04-18T11:18:09.706Z,46.34
2023-04-18T11:23:30.650Z,45.49
2023-04-18T11:28:33.684Z,45.11
2023-04-18T11:33:36.859Z,45.34
2023-04-18T11:38:40.859Z,45.95
2023-04-18T11:43:45.595Z,45.38
2023-04-18T11:48:50.516Z,43.36
2023-04-18T11:53:54.350Z,44.44
2023-04-18T11:59:10.477Z,44.80
2023-04-18T12:04:14.451Z,42.54
2023-04-18T12:09:18.694Z,41.64
2023-04-18T12:14:23.051Z,41.98
2023-04-18T12:19:28.499Z,41.98
2023-04-18T12:24:32.446Z,40.18
2023-04-18T12:29:35.873Z,38.29
2023-04-18T12:34:39.447Z,38.23
2023-04-18T12:39:42.437Z,38.32
2023-04-18T12:44:48.512Z,39.59
2023-04-18T12:49:51.441Z,39.63
2023-04-18T12:54:56.446Z,39.84
2023-04-18T13:00:00.069Z,38.81
2023-04-18T13:05:41.628Z,39.24
2023-04-18T13:10:48.064Z,40.18
2023-04-18T13:15:51.543Z,40.17
2023-04-18T13:20:54.513Z,39.14
2023-04-18T13:25:57.531Z,39.51
2023-04-18T13:31:00.571Z,39.77
2023-04-18T13:36:03.864Z,38.42
2023-04-18T13:41:12.731Z,38.65
2023-04-18T13:46:17.730Z,39.84
2023-04-18T13:51:20.955Z,40.62
2023-04-18T13:56:24.375Z,41.54
2023-04-18T14:01:28.057Z,41.85
2023-04-18T14:06:32.622Z,41.95
2023-04-18T14:11:35.709Z,42.21
2023-04-18T14:16:39.408Z,42.32
2023-04-18T14:21:42.384Z,42.83
2023-04-18T14:26:45.445Z,43.34
2023-04-18T14:31:48.804Z,43.05
2023-04-18T14:40:25.546Z,41.04
2023-04-18T14:45:28.591Z,41.62
2023-04-18T14:50:31.745Z,42.75
2023-04-18T14:55:34.826Z,43.06
2023-04-18T15:00:37.986Z,42.72
2023-04-18T15:05:43.198Z,42.17
2023-04-18T15:10:47.622Z,42.56
2023-04-18T15:15:54.633Z,42.67
2023-04-18T15:21:00.026Z,43.12
2023-04-18T15:26:03.161Z,43.03
2023-04-18T15:31:06.645Z,43.08
2023-04-18T15:36:10.135Z,43.59
2023-04-18T15:41:13.315Z,43.73
2023-04-18T15:46:16.430Z,45.52
2023-04-18T15:51:19.642Z,47.20
2023-04-18T15:56:25.186Z,47.85
2023-04-18T16:01:28.444Z,47.81
2023-04-18T16:06:31.762Z,47.47
2023-04-18T16:11:35.448Z,46.76
2023-04-18T16:16:38.676Z,46.26
2023-04-18T16:21:41.644Z,46.48
2023-04-18T16:26:44.641Z,47.07
2023-04-18T16:31:48.238Z,46.95
2023-04-18T16:36:51.479Z,46.86
2023-04-18T16:41:54.662Z,47.31
2023-04-18T16:46:57.803Z,46.52
2023-04-18T16:52:01.652Z,46.41
2023-04-18T16:57:05.009Z,47.83
2023-04-18T17:02:08.318Z,48.12
2023-04-18T17:07:11.476Z,48.30
2023-04-18T17:12:14.431Z,48.00
2023-04-18T17:17:17.483Z,48.02
2023-04-18T17:22:20.561Z,47.56
2023-04-18T17:27:26.490Z,47.04
2023-04-18T17:32:29.475Z,47.06
2023-04-18T17:37:32.455Z,47.14
2023-04-18T17:42:36.955Z,47.37
2023-04-18T17:47:41.050Z,47.59
2023-04-18T17:52:45.254Z,47.88
2023-04-18T17:57:48.403Z,48.51
2023-04-18T18:02:51.928Z,48.99
2023-04-18T18:07:56.515Z,49.63
2023-04-18T18:12:59.933Z,50.17
2023-04-18T18:18:03.005Z,50.93
2023-04-18T18:23:07.798Z,51.53
2023-04-18T18:28:10.833Z,52.20
2023-04-18T18:33:15.978Z,52.84
2023-04-18T18:38:18.930Z,53.40
2023-04-18T18:43:26.407Z,53.83
2023-04-18T18:48:29.549Z,54.22
2023-04-18T18:53:32.698Z,54.48
2023-04-18T18:58:36.121Z,54.63
2023-04-18T19:03:39.379Z,55.07
2023-04-18T19:08:42.705Z,55.11
2023-04-18T19:13:45.965Z,55.26
2023-04-18T19:18:50.768Z,55.61
2023-04-18T19:23:53.920Z,55.36
2023-04-18T19:28:57.196Z,55.77
2023-04-18T19:34:01.114Z,55.67
2023-04-18T19:39:04.341Z,55.81
2023-04-18T19:44:07.507Z,55.87
2023-04-18T19:49:10.477Z,55.79
2023-04-18T19:54:14.156Z,55.70
2023-04-18T19:59:17.401Z,55.49
2023-04-18T20:04:22.333Z,54.64
2023-04-18T20:09:36.429Z,54.35
2023-04-18T20:14:39.512Z,54.04
2023-04-18T20:19:42.626Z,53.81
2023-04-18T20:24:46.350Z,53.88
2023-04-18T20:29:49.524Z,53.77
2023-04-18T20:34:52.541Z,53.26
2023-04-18T20:39:56.698Z,53.02
2023-04-18T20:45:00.477Z,53.54
2023-04-18T20:50:03.913Z,54.14
2023-04-18T20:55:07.226Z,54.91
2023-04-18T21:00:11.273Z,56.04
2023-04-18T21:05:14.460Z,56.40
2023-04-18T21:10:17.499Z,57.59
2023-04-18T21:15:20.455Z,57.79
2023-04-18T21:20:23.588Z,58.69
2023-04-18T21:25:26.720Z,58.67
2023-04-18T21:30:29.768Z,59.14
2023-04-18T21:35:32.828Z,60.08
2023-04-18T21:40:37.446Z,59.75
2023-04-18T21:45:40.502Z,60.06
2023-04-18T21:50:43.766Z,60.81
2023-04-18T21:55:47.045Z,61.56
2023-04-18T22:00:50.575Z,65.81
2023-04-18T22:05:53.630Z,65.97
2023-04-18T22:10:59.114Z,57.12
2023-04-18T22:16:05.663Z,55.29
2023-04-18T22:21:09.719Z,56.40
2023-04-18T22:26:12.965Z,57.52
2023-04-18T22:31:16.243Z,59.37
2023-04-18T22:36:19.302Z,59.73
2023-04-18T22:41:22.353Z,60.26
2023-04-18T22:46:25.395Z,61.11
2023-04-18T22:51:29.334Z,68.53
2023-04-18T22:56:32.358Z,64.58
2023-04-18T23:01:35.432Z,56.23
2023-04-18T23:06:38.936Z,55.55
2023-04-18T23:11:41.923Z,56.97
2023-04-18T23:16:45.011Z,58.08
2023-04-18T23:21:49.517Z,59.34
2023-04-18T23:26:52.854Z,60.32
2023-04-18T23:31:56.193Z,61.09
2023-04-18T23:37:00.616Z,68.17
2023-04-18T23:42:03.795Z,63.92
2023-04-18T23:47:07.012Z,55.63
2023-04-18T23:52:10.086Z,55.04
2023-04-18T23:57:13.015Z,56.44
